createdAt,value
2022-08-22T00:02:36.869Z,2.30
2022-08-22T00:02:41.622Z,1.77
2022-08-22T00:02:49.418Z,1.88
2022-08-22T00:02:57.558Z,2.33
2022-08-22T00:06:17.881Z,2.35
2022-08-22T00:09:33.347Z,2.40
2022-08-22T00:12:32.604Z,2.80
2022-08-22T00:15:42.100Z,2.20
2022-08-22T00:18:40.020Z,2.63
2022-08-22T00:21:37.020Z,2.40
2022-08-22T00:25:24.828Z,2.10
2022-08-22T00:28:24.285Z,2.67
2022-08-22T00:31:40.346Z,2.25
2022-08-22T00:34:37.725Z,2.42
2022-08-22T00:37:52.672Z,2.45
2022-08-22T00:41:24.353Z,2.50
2022-08-22T00:44:53.946Z,2.53
2022-08-22T00:48:15.268Z,2.65
2022-08-22T00:51:46.041Z,2.67
2022-08-22T00:55:04.234Z,2.85
2022-08-22T00:58:23.925Z,2.50
2022-08-22T01:01:14.184Z,2.85
2022-08-22T01:04:07.533Z,2.60
2022-08-22T01:07:30.629Z,2.55
2022-08-22T01:10:50.765Z,2.78
2022-08-22T01:13:54.022Z,2.50
2022-08-22T01:17:02.609Z,2.85
2022-08-22T01:20:03.392Z,2.87
2022-08-22T01:23:25.277Z,3.00
2022-08-22T01:26:33.808Z,2.90
2022-08-22T01:29:42.445Z,2.85
2022-08-22T01:33:06.005Z,3.30
2022-08-22T01:36:21.026Z,2.88
2022-08-22T01:39:26.887Z,3.10
2022-08-22T01:42:32.362Z,3.20
2022-08-22T01:45:58.536Z,3.10
2022-08-22T01:49:27.741Z,3.17
2022-08-22T01:52:19.509Z,3.10
2022-08-22T01:55:14.173Z,3.15
2022-08-22T01:58:19.872Z,2.78
2022-08-22T02:01:28.383Z,2.90
2022-08-22T02:04:27.672Z,2.63
2022-08-22T02:07:20.845Z,3.03
2022-08-22T02:10:18.796Z,2.95
2022-08-22T02:13:14.820Z,3.20
2022-08-22T02:16:16.256Z,3.10
2022-08-22T02:19:15.717Z,3.22
2022-08-22T02:25:15.036Z,3.30
2022-08-22T02:28:10.780Z,3.13
2022-08-22T02:31:11.844Z,3.65
2022-08-22T02:34:35.839Z,3.42
2022-08-22T02:37:34.537Z,3.00
2022-08-22T02:40:40.882Z,3.70
2022-08-22T02:43:52.006Z,3.53
2022-08-22T02:46:51.288Z,3.20
2022-08-22T02:50:13.070Z,3.63
2022-08-22T02:53:28.303Z,3.30
2022-08-22T02:56:32.424Z,3.03
2022-08-22T02:59:39.604Z,3.17
2022-08-22T03:02:34.786Z,3.33
2022-08-22T03:05:26.320Z,3.22
2022-08-22T03:08:25.308Z,3.25
2022-08-22T03:11:27.140Z,3.50
2022-08-22T03:14:30.904Z,3.28
2022-08-22T03:17:30.424Z,3.30
2022-08-22T03:20:45.058Z,3.00
2022-08-22T03:23:42.016Z,2.92
2022-08-22T03:26:51.870Z,3.65
2022-08-22T03:30:07.429Z,2.97
2022-08-22T03:33:22.852Z,3.40
2022-08-22T03:36:15.756Z,3.58
2022-08-22T03:39:22.848Z,3.42
2022-08-22T03:42:16.067Z,4.00
2022-08-22T03:45:26.456Z,3.63
2022-08-22T03:48:51.437Z,3.92
2022-08-22T03:51:57.729Z,3.60
2022-08-22T03:55:03.532Z,4.10
2022-08-22T03:58:27.610Z,3.50
2022-08-22T04:01:53.418Z,3.58
2022-08-22T04:04:43.585Z,3.10
2022-08-22T04:07:53.092Z,4.20
2022-08-22T04:10:59.247Z,4.20
2022-08-22T04:17:27.273Z,3.55
2022-08-22T04:20:48.691Z,3.65
2022-08-22T04:23:41.903Z,3.90
2022-08-22T04:26:51.426Z,3.70
2022-08-22T04:29:50.025Z,3.72
2022-08-22T04:32:43.692Z,3.93
2022-08-22T04:35:44.334Z,3.83
2022-08-22T04:38:42.184Z,4.20
2022-08-22T04:41:48.705Z,3.88
2022-08-22T04:44:41.124Z,3.70
2022-08-22T04:47:38.533Z,3.67
2022-08-22T04:50:48.785Z,3.78
2022-08-22T04:53:52.475Z,3.50
2022-08-22T04:57:01.517Z,3.67
2022-08-22T04:59:50.308Z,3.13
2022-08-22T05:02:44.765Z,3.42
2022-08-22T05:05:41.532Z,3.40
2022-08-22T05:08:33.230Z,3.42
2022-08-22T05:11:22.982Z,3.45
2022-08-22T05:14:28.234Z,3.03
2022-08-22T05:17:20.330Z,3.80
2022-08-22T05:20:12.036Z,3.22
2022-08-22T05:23:17.525Z,3.53
2022-08-22T05:26:07.113Z,3.05
2022-08-22T05:29:00.139Z,3.70
2022-08-22T05:31:54.521Z,3.90
2022-08-22T05:34:45.094Z,3.80
2022-08-22T05:37:48.247Z,3.70
2022-08-22T05:40:37.929Z,4.00
2022-08-22T05:43:26.296Z,3.67
2022-08-22T05:46:20.325Z,3.50
2022-08-22T05:49:36.285Z,3.40
2022-08-22T05:55:46.478Z,3.05
2022-08-22T05:58:39.751Z,3.05
2022-08-22T06:01:27.535Z,3.50
2022-08-22T06:04:27.172Z,2.92
2022-08-22T06:07:21.913Z,3.70
2022-08-22T06:10:17.570Z,3.22
2022-08-22T06:13:34.854Z,3.30
2022-08-22T06:16:48.509Z,3.38
2022-08-22T06:19:40.117Z,3.08
2022-08-22T06:22:32.044Z,3.33
2022-08-22T06:25:43.235Z,3.45
2022-08-22T06:28:37.846Z,7.28
2022-08-22T06:31:45.786Z,4.93
2022-08-22T06:34:37.841Z,3.65
2022-08-22T06:37:36.694Z,3.00
2022-08-22T06:40:24.964Z,3.03
2022-08-22T06:43:12.819Z,3.00
2022-08-22T06:46:00.877Z,2.72
2022-08-22T06:48:50.071Z,3.28
2022-08-22T06:51:38.793Z,2.92
2022-08-22T06:54:34.167Z,3.10
2022-08-22T06:57:37.133Z,3.15
2022-08-22T07:00:26.628Z,2.95
2022-08-22T07:03:36.261Z,2.97
2022-08-22T07:06:42.594Z,3.03
2022-08-22T07:09:37.152Z,2.80
2022-08-22T07:12:35.188Z,3.10
2022-08-22T07:15:39.676Z,3.47
2022-08-22T07:18:29.658Z,3.08
2022-08-22T07:21:29.890Z,3.28
2022-08-22T07:24:25.580Z,3.20
2022-08-22T07:27:40.540Z,3.33
2022-08-22T07:30:53.177Z,3.08
2022-08-22T07:34:12.117Z,2.92
2022-08-22T07:37:30.684Z,3.33
2022-08-22T07:40:52.121Z,3.20
2022-08-22T07:44:13.404Z,2.50
2022-08-22T07:47:16.334Z,2.95
2022-08-22T07:50:08.392Z,2.60
2022-08-22T07:53:13.352Z,2.42
2022-08-22T07:56:06.800Z,2.65
2022-08-22T07:59:10.095Z,3.03
2022-08-22T08:02:04.769Z,3.33
2022-08-22T08:04:55.018Z,2.88
2022-08-22T08:07:45.421Z,2.30
2022-08-22T08:10:37.291Z,2.30
2022-08-22T08:13:29.621Z,2.65
2022-08-22T08:16:21.708Z,2.47
2022-08-22T08:19:11.812Z,2.38
2022-08-22T08:21:59.769Z,2.90
2022-08-22T08:24:49.430Z,2.55
2022-08-22T08:27:57.058Z,2.40
2022-08-22T08:30:53.414Z,2.22
2022-08-22T08:33:44.661Z,2.28
2022-08-22T08:36:51.202Z,2.03
2022-08-22T08:39:43.969Z,2.40
2022-08-22T08:43:21.831Z,1.92
2022-08-22T08:46:40.350Z,2.10
2022-08-22T08:50:09.623Z,1.80
2022-08-22T08:56:19.767Z,1.90
2022-08-22T08:59:48.175Z,2.28
2022-08-22T09:02:50.384Z,2.05
2022-08-22T09:05:47.269Z,1.83
2022-08-22T09:08:50.668Z,2.17
2022-08-22T09:12:05.972Z,1.98
2022-08-22T09:15:11.983Z,2.22
2022-08-22T09:18:33.242Z,2.22
2022-08-22T09:22:14.492Z,1.73
2022-08-22T09:25:23.582Z,1.90
2022-08-22T09:28:15.317Z,2.30
2022-08-22T09:34:57.325Z,2.47
2022-08-22T09:38:00.466Z,2.63
2022-08-22T09:40:15.703Z,2.03
2022-08-22T09:40:52.154Z,2.30
2022-08-22T09:44:01.238Z,2.53
2022-08-22T09:47:24.669Z,1.80
2022-08-22T09:50:20.613Z,2.17
2022-08-22T09:53:58.593Z,2.17
2022-08-22T09:56:58.332Z,2.08
2022-08-22T10:00:00.005Z,1.98
2022-08-22T10:03:09.634Z,2.00
2022-08-22T10:06:05.555Z,2.25
2022-08-22T10:12:03.269Z,2.47
2022-08-22T10:15:06.922Z,2.10
2022-08-22T10:18:10.317Z,2.53
2022-08-22T10:21:07.448Z,2.20
2022-08-22T10:24:03.164Z,2.45
2022-08-22T10:26:58.203Z,2.28
2022-08-22T10:29:54.968Z,2.38
2022-08-22T10:32:49.961Z,2.08
2022-08-22T10:36:00.461Z,2.40
2022-08-22T10:38:55.380Z,1.98
2022-08-22T10:42:00.945Z,2.22
2022-08-22T10:45:02.516Z,2.25
2022-08-22T10:47:58.670Z,2.08
2022-08-22T10:50:55.144Z,2.13
2022-08-22T10:53:58.443Z,2.05
2022-08-22T10:56:52.886Z,2.20
2022-08-22T11:00:03.024Z,1.75
2022-08-22T11:03:02.309Z,2.92
2022-08-22T11:08:51.201Z,1.92
2022-08-22T11:11:46.096Z,2.13
2022-08-22T11:14:40.485Z,2.78
2022-08-22T11:18:13.090Z,1.92
2022-08-22T11:21:15.745Z,2.13
2022-08-22T11:24:35.647Z,1.90
2022-08-22T11:27:59.112Z,1.95
2022-08-22T11:31:07.198Z,2.00
2022-08-22T11:34:15.233Z,2.05
2022-08-22T11:37:42.228Z,2.08
2022-08-22T11:40:42.533Z,2.00
2022-08-22T11:44:03.357Z,1.90
2022-08-22T11:46:55.289Z,2.03
2022-08-22T11:49:52.569Z,1.88
2022-08-22T11:53:18.550Z,2.30
2022-08-22T11:56:34.877Z,2.05
2022-08-22T11:59:32.982Z,2.17
2022-08-22T12:02:59.880Z,2.03
2022-08-22T12:05:47.167Z,2.05
2022-08-22T12:08:35.130Z,1.85
2022-08-22T12:11:32.221Z,2.05
2022-08-22T12:14:32.196Z,2.38
2022-08-22T12:17:55.861Z,2.30
2022-08-22T12:21:06.677Z,2.05
2022-08-22T12:24:19.293Z,2.17
2022-08-22T12:27:29.689Z,2.10
2022-08-22T12:30:41.718Z,2.53
2022-08-22T12:33:53.986Z,2.65
2022-08-22T12:37:15.627Z,2.50
2022-08-22T12:40:48.049Z,2.47
2022-08-22T12:43:46.856Z,2.38
2022-08-22T12:46:46.684Z,2.72
2022-08-22T12:49:49.801Z,1.98
2022-08-22T12:53:06.000Z,2.85
2022-08-22T12:56:04.949Z,2.13
2022-08-22T12:59:07.393Z,2.22
2022-08-22T13:02:01.265Z,2.53
2022-08-22T13:04:59.110Z,1.83
2022-08-22T13:07:54.396Z,2.20
2022-08-22T13:10:45.774Z,2.55
2022-08-22T13:13:56.484Z,2.42
2022-08-22T13:16:51.128Z,2.13
2022-08-22T13:19:52.898Z,2.00
2022-08-22T13:22:45.425Z,2.30
2022-08-22T13:26:16.445Z,2.03
2022-08-22T13:29:27.454Z,2.53
2022-08-22T13:32:37.936Z,2.92
2022-08-22T13:35:51.894Z,2.40
2022-08-22T13:38:46.338Z,2.20
2022-08-22T13:41:44.945Z,2.50
2022-08-22T13:44:46.469Z,3.00
2022-08-22T13:47:39.222Z,2.38
2022-08-22T13:50:52.914Z,2.92
2022-08-22T13:54:01.033Z,2.65
2022-08-22T13:57:02.673Z,2.05
2022-08-22T14:00:06.173Z,2.60
2022-08-22T14:03:15.604Z,2.47
2022-08-22T14:06:32.871Z,2.22
2022-08-22T14:12:15.328Z,2.35
2022-08-22T14:15:07.495Z,2.20
2022-08-22T14:18:03.361Z,2.40
2022-08-22T14:20:51.307Z,2.50
2022-08-22T14:23:38.714Z,2.45
2022-08-22T14:26:37.364Z,2.22
2022-08-22T14:29:58.056Z,2.20
2022-08-22T14:33:20.841Z,2.10
2022-08-22T14:36:20.118Z,2.25
2022-08-22T14:42:10.904Z,2.70
2022-08-22T14:45:12.666Z,2.15
2022-08-22T14:48:29.948Z,2.22
2022-08-22T14:51:24.074Z,2.13
2022-08-22T14:54:21.535Z,2.10
2022-08-22T14:57:14.174Z,2.33
2022-08-22T15:00:12.163Z,2.67
2022-08-22T15:03:32.230Z,2.30
2022-08-22T15:06:47.821Z,2.22
2022-08-22T15:09:49.009Z,2.00
2022-08-22T15:12:40.629Z,2.17
2022-08-22T15:15:41.238Z,2.15
2022-08-22T15:18:41.148Z,1.92
2022-08-22T15:21:41.401Z,1.95
2022-08-22T15:24:29.961Z,1.85
2022-08-22T15:27:20.113Z,1.90
2022-08-22T15:30:18.740Z,1.98
2022-08-22T15:33:15.776Z,2.17
2022-08-22T15:36:19.875Z,2.17
2022-08-22T15:39:27.176Z,2.25
2022-08-22T15:42:26.001Z,2.42
2022-08-22T15:45:33.689Z,2.05
2022-08-22T15:48:39.031Z,2.42
2022-08-22T15:51:50.338Z,2.20
2022-08-22T15:54:46.956Z,2.42
2022-08-22T15:57:41.795Z,2.95
2022-08-22T16:01:02.571Z,2.83
2022-08-22T16:04:13.739Z,2.30
2022-08-22T16:07:02.512Z,2.80
2022-08-22T16:09:56.726Z,2.30
2022-08-22T16:12:47.613Z,2.22
2022-08-22T16:15:46.999Z,2.35
2022-08-22T16:18:34.224Z,2.40
2022-08-22T16:21:21.993Z,2.10
2022-08-22T16:24:09.224Z,2.40
2022-08-22T16:26:56.816Z,2.00
2022-08-22T16:29:45.305Z,2.35
2022-08-22T16:32:33.763Z,2.87
2022-08-22T16:35:58.685Z,2.17
2022-08-22T16:38:52.813Z,2.30
2022-08-22T16:41:43.468Z,2.40
2022-08-22T16:44:30.702Z,1.77
2022-08-22T16:47:36.223Z,2.10
2022-08-22T16:50:38.345Z,2.70
2022-08-22T16:53:28.296Z,2.17
2022-08-22T16:56:29.678Z,2.20
2022-08-22T16:59:38.660Z,2.80
2022-08-22T17:02:57.497Z,2.20
2022-08-22T17:06:11.009Z,2.20
2022-08-22T17:09:04.264Z,2.33
2022-08-22T17:12:18.828Z,2.45
2022-08-22T17:15:24.782Z,2.17
2022-08-22T17:18:47.383Z,2.50
2022-08-22T17:22:19.999Z,2.70
2022-08-22T17:25:21.978Z,3.17
2022-08-22T17:28:34.370Z,2.88
2022-08-22T17:31:49.777Z,2.85
2022-08-22T17:34:59.420Z,2.60
2022-08-22T17:38:10.669Z,2.60
2022-08-22T17:41:26.467Z,2.40
2022-08-22T17:44:25.966Z,2.22
2022-08-22T17:47:22.193Z,2.22
2022-08-22T17:50:22.813Z,2.50
2022-08-22T17:53:31.850Z,2.20
2022-08-22T17:56:45.478Z,2.28
2022-08-22T17:59:46.601Z,2.20
2022-08-22T18:02:40.462Z,2.75
2022-08-22T18:05:36.468Z,2.40
2022-08-22T18:09:13.309Z,2.35
2022-08-22T18:11:55.056Z,2.33
2022-08-22T18:14:58.963Z,2.20
2022-08-22T18:17:56.802Z,2.15
2022-08-22T18:20:55.989Z,2.33
2022-08-22T18:24:18.645Z,2.60
2022-08-22T18:27:34.442Z,2.45
2022-08-22T18:30:27.752Z,2.40
2022-08-22T18:33:26.954Z,2.45
2022-08-22T18:36:34.525Z,2.53
2022-08-22T18:39:49.407Z,2.58
2022-08-22T18:42:47.537Z,2.40
2022-08-22T18:45:46.852Z,3.05
2022-08-22T18:51:26.627Z,3.17
2022-08-22T18:54:29.810Z,2.75
2022-08-22T18:57:54.119Z,2.90
2022-08-22T19:01:07.534Z,2.65
2022-08-22T19:04:22.359Z,2.80
2022-08-22T19:07:30.252Z,2.60
2022-08-22T19:10:37.400Z,2.92
2022-08-22T19:14:18.397Z,3.40
2022-08-22T19:17:28.274Z,2.97
2022-08-22T19:20:48.707Z,2.90
2022-08-22T19:23:36.692Z,2.80
2022-08-22T19:26:30.031Z,2.83
2022-08-22T19:29:17.366Z,2.95
2022-08-22T19:32:11.874Z,3.00
2022-08-22T19:35:20.960Z,3.03
2022-08-22T19:38:09.883Z,3.08
2022-08-22T19:40:58.242Z,2.75
2022-08-22T19:43:46.623Z,3.08
2022-08-22T19:46:38.246Z,3.30
2022-08-22T19:49:34.557Z,3.13
2022-08-22T19:52:59.366Z,3.42
2022-08-22T19:56:05.025Z,2.80
2022-08-22T19:59:08.612Z,3.03
2022-08-22T20:02:38.712Z,3.33
2022-08-22T20:05:58.093Z,3.33
2022-08-22T20:09:11.353Z,2.92
2022-08-22T20:12:17.073Z,3.65
2022-08-22T20:15:31.437Z,3.25
2022-08-22T20:19:02.253Z,3.03
2022-08-22T20:21:58.864Z,3.72
2022-08-22T20:25:16.874Z,3.83
2022-08-22T20:28:40.757Z,3.15
2022-08-22T20:31:34.717Z,3.10
2022-08-22T20:34:26.925Z,3.10
2022-08-22T20:37:35.527Z,3.13
2022-08-22T20:40:57.042Z,3.28
2022-08-22T20:44:02.273Z,3.28
2022-08-22T20:47:01.058Z,3.40
2022-08-22T20:49:53.106Z,3.42
2022-08-22T20:52:51.878Z,3.20
2022-08-22T20:55:54.654Z,3.03
2022-08-22T20:58:48.273Z,3.22
2022-08-22T21:01:36.546Z,3.13
2022-08-22T21:04:28.453Z,3.00
2022-08-22T21:07:24.644Z,3.45
2022-08-22T21:10:46.001Z,3.22
2022-08-22T21:13:36.114Z,3.30
2022-08-22T21:16:33.249Z,3.00
2022-08-22T21:19:29.863Z,3.55
2022-08-22T21:22:32.212Z,3.08
2022-08-22T21:25:19.552Z,3.00
2022-08-22T21:28:06.856Z,3.40
2022-08-22T21:30:54.326Z,3.80
2022-08-22T21:33:45.053Z,2.65
2022-08-22T21:36:37.897Z,3.15
2022-08-22T21:39:34.208Z,2.80
2022-08-22T21:42:32.045Z,3.63
2022-08-22T21:45:32.098Z,3.60
2022-08-22T21:51:21.567Z,3.72
2022-08-22T21:54:25.292Z,3.10
2022-08-22T21:57:12.649Z,3.58
2022-08-22T22:00:00.347Z,3.20
2022-08-22T22:02:48.954Z,3.47
2022-08-22T22:05:37.072Z,3.78
2022-08-22T22:08:25.256Z,3.63
2022-08-22T22:11:18.987Z,3.45
2022-08-22T22:14:06.941Z,3.35
2022-08-22T22:16:54.265Z,3.13
2022-08-22T22:19:41.669Z,3.47
2022-08-22T22:22:28.997Z,3.03
2022-08-22T22:25:40.998Z,2.80
2022-08-22T22:28:34.409Z,3.13
2022-08-22T22:31:21.688Z,3.03
2022-08-22T22:34:08.953Z,3.35
2022-08-22T22:36:56.343Z,3.08
2022-08-22T22:39:43.735Z,3.33
2022-08-22T22:42:31.052Z,2.85
2022-08-22T22:45:18.723Z,3.42
2022-08-22T22:48:07.281Z,3.65
2022-08-22T22:50:56.161Z,3.30
2022-08-22T22:53:44.760Z,2.80
2022-08-22T22:56:32.120Z,3.38
2022-08-22T22:59:24.712Z,3.53
2022-08-22T23:02:20.936Z,2.88
2022-08-22T23:05:10.569Z,3.47
2022-08-22T23:07:59.154Z,2.90
2022-08-22T23:10:46.600Z,3.65
2022-08-22T23:13:35.192Z,3.22
2022-08-22T23:16:28.704Z,2.97
2022-08-22T23:19:17.587Z,3.00
2022-08-22T23:22:06.581Z,3.20
2022-08-22T23:24:53.942Z,3.55
2022-08-22T23:27:41.358Z,3.45
2022-08-22T23:30:28.614Z,3.58
2022-08-22T23:33:15.865Z,3.38
2022-08-22T23:36:13.882Z,3.55
2022-08-22T23:39:01.228Z,3.17
2022-08-22T23:41:49.280Z,3.85
2022-08-22T23:44:38.536Z,3.33
2022-08-22T23:47:25.881Z,3.45
2022-08-22T23:50:13.116Z,3.30
2022-08-22T23:53:00.515Z,3.38
2022-08-22T23:55:47.854Z,3.42
2022-08-22T23:58:36.141Z,3.58
